sensor_id;sensor_type;location;lat;lon;timestamp;P1;durP1;ratioP1;P2;durP2;ratioP2
8580;SDS011;4328;48.622;9.230;2022-12-18T00:02:13;24.27;;;13.43;;
8580;SDS011;4328;48.622;9.230;2022-12-18T00:04:39;30.00;;;13.80;;
8580;SDS011;4328;48.622;9.230;2022-12-18T00:07:06;25.87;;;13.07;;
8580;SDS011;4328;48.622;9.230;2022-12-18T00:09:33;30.83;;;13.70;;
8580;SDS011;4328;48.622;9.230;2022-12-18T00:11:59;23.03;;;12.37;;
8580;SDS011;4328;48.622;9.230;2022-12-18T00:14:26;22.57;;;12.50;;
8580;SDS011;4328;48.622;9.230;2022-12-18T00:16:54;25.23;;;13.57;;
8580;SDS011;4328;48.622;9.230;2022-12-18T00:19:23;26.63;;;12.90;;
8580;SDS011;4328;48.622;9.230;2022-12-18T00:21:50;25.20;;;13.80;;
8580;SDS011;4328;48.622;9.230;2022-12-18T00:24:16;28.77;;;14.63;;
8580;SDS011;4328;48.622;9.230;2022-12-18T00:26:43;26.10;;;13.53;;
8580;SDS011;4328;48.622;9.230;2022-12-18T00:29:11;22.37;;;13.47;;
8580;SDS011;4328;48.622;9.230;2022-12-18T00:31:40;30.07;;;15.20;;
8580;SDS011;4328;48.622;9.230;2022-12-18T00:34:10;27.77;;;15.27;;
8580;SDS011;4328;48.622;9.230;2022-12-18T00:36:38;28.53;;;14.80;;
8580;SDS011;4328;48.622;9.230;2022-12-18T00:39:05;24.97;;;14.97;;
8580;SDS011;4328;48.622;9.230;2022-12-18T00:41:33;28.43;;;14.90;;
8580;SDS011;4328;48.622;9.230;2022-12-18T00:44:17;29.10;;;15.07;;
8580;SDS011;4328;48.622;9.230;2022-12-18T00:46:45;28.73;;;14.63;;
8580;SDS011;4328;48.622;9.230;2022-12-18T00:49:14;27.97;;;15.23;;
8580;SDS011;4328;48.622;9.230;2022-12-18T00:51:42;28.13;;;14.57;;
8580;SDS011;4328;48.622;9.230;2022-12-18T00:54:09;26.10;;;14.43;;
8580;SDS011;4328;48.622;9.230;2022-12-18T00:56:36;25.43;;;14.83;;
8580;SDS011;4328;48.622;9.230;2022-12-18T00:59:03;24.97;;;13.47;;
8580;SDS011;4328;48.622;9.230;2022-12-18T01:01:29;35.27;;;15.63;;
8580;SDS011;4328;48.622;9.230;2022-12-18T01:03:57;22.63;;;13.37;;
8580;SDS011;4328;48.622;9.230;2022-12-18T01:06:25;27.77;;;12.90;;
8580;SDS011;4328;48.622;9.230;2022-12-18T01:08:52;22.03;;;11.77;;
8580;SDS011;4328;48.622;9.230;2022-12-18T01:11:19;29.60;;;13.00;;
8580;SDS011;4328;48.622;9.230;2022-12-18T01:13:46;24.10;;;12.43;;
8580;SDS011;4328;48.622;9.230;2022-12-18T01:16:13;26.40;;;12.43;;
8580;SDS011;4328;48.622;9.230;2022-12-18T01:18:41;25.30;;;13.40;;
8580;SDS011;4328;48.622;9.230;2022-12-18T01:21:08;23.13;;;13.03;;
8580;SDS011;4328;48.622;9.230;2022-12-18T01:23:38;26.23;;;13.03;;
8580;SDS011;4328;48.622;9.230;2022-12-18T01:26:05;27.57;;;13.47;;
8580;SDS011;4328;48.622;9.230;2022-12-18T01:28:32;24.73;;;12.40;;
8580;SDS011;4328;48.622;9.230;2022-12-18T01:31:08;23.00;;;12.73;;
8580;SDS011;4328;48.622;9.230;2022-12-18T01:33:39;25.60;;;13.20;;
8580;SDS011;4328;48.622;9.230;2022-12-18T01:36:06;23.10;;;12.90;;
8580;SDS011;4328;48.622;9.230;2022-12-18T01:38:33;22.67;;;12.20;;
8580;SDS011;4328;48.622;9.230;2022-12-18T01:41:01;23.70;;;11.93;;
8580;SDS011;4328;48.622;9.230;2022-12-18T01:46:10;23.43;;;12.03;;
8580;SDS011;4328;48.622;9.230;2022-12-18T01:48:37;23.60;;;11.53;;
8580;SDS011;4328;48.622;9.230;2022-12-18T01:51:05;21.40;;;10.70;;
8580;SDS011;4328;48.622;9.230;2022-12-18T01:53:34;23.87;;;11.67;;
8580;SDS011;4328;48.622;9.230;2022-12-18T01:56:03;21.03;;;11.77;;
8580;SDS011;4328;48.622;9.230;2022-12-18T01:58:32;25.77;;;12.67;;
8580;SDS011;4328;48.622;9.230;2022-12-18T02:01:05;21.63;;;12.17;;
8580;SDS011;4328;48.622;9.230;2022-12-18T02:03:32;21.07;;;11.40;;
8580;SDS011;4328;48.622;9.230;2022-12-18T02:06:00;20.30;;;11.43;;
8580;SDS011;4328;48.622;9.230;2022-12-18T02:08:37;24.70;;;11.97;;
8580;SDS011;4328;48.622;9.230;2022-12-18T02:11:17;18.83;;;11.87;;
8580;SDS011;4328;48.622;9.230;2022-12-18T02:13:52;21.10;;;11.30;;
8580;SDS011;4328;48.622;9.230;2022-12-18T02:16:29;21.70;;;12.37;;
8580;SDS011;4328;48.622;9.230;2022-12-18T02:19:06;21.43;;;12.83;;
8580;SDS011;4328;48.622;9.230;2022-12-18T02:21:44;22.70;;;12.17;;
8580;SDS011;4328;48.622;9.230;2022-12-18T02:24:25;19.47;;;11.53;;
8580;SDS011;4328;48.622;9.230;2022-12-18T02:26:58;23.63;;;12.40;;
8580;SDS011;4328;48.622;9.230;2022-12-18T02:29:28;24.70;;;13.87;;
8580;SDS011;4328;48.622;9.230;2022-12-18T02:31:58;21.20;;;12.50;;
8580;SDS011;4328;48.622;9.230;2022-12-18T02:34:26;26.53;;;13.00;;
8580;SDS011;4328;48.622;9.230;2022-12-18T02:36:56;23.80;;;13.23;;
8580;SDS011;4328;48.622;9.230;2022-12-18T02:39:25;25.27;;;13.67;;
8580;SDS011;4328;48.622;9.230;2022-12-18T02:41:54;26.20;;;13.70;;
8580;SDS011;4328;48.622;9.230;2022-12-18T02:44:24;19.63;;;11.47;;
8580;SDS011;4328;48.622;9.230;2022-12-18T02:46:51;27.33;;;12.60;;
8580;SDS011;4328;48.622;9.230;2022-12-18T02:49:26;24.67;;;12.53;;
8580;SDS011;4328;48.622;9.230;2022-12-18T02:52:02;22.03;;;12.83;;
8580;SDS011;4328;48.622;9.230;2022-12-18T02:54:36;21.20;;;12.00;;
8580;SDS011;4328;48.622;9.230;2022-12-18T02:57:14;25.10;;;12.60;;
8580;SDS011;4328;48.622;9.230;2022-12-18T02:59:49;19.90;;;12.63;;
8580;SDS011;4328;48.622;9.230;2022-12-18T03:02:24;24.13;;;12.80;;
8580;SDS011;4328;48.622;9.230;2022-12-18T03:04:57;21.67;;;11.80;;
8580;SDS011;4328;48.622;9.230;2022-12-18T03:07:34;22.83;;;12.97;;
8580;SDS011;4328;48.622;9.230;2022-12-18T03:10:05;21.73;;;13.07;;
8580;SDS011;4328;48.622;9.230;2022-12-18T03:12:35;21.70;;;13.97;;
8580;SDS011;4328;48.622;9.230;2022-12-18T03:15:08;24.73;;;13.13;;
8580;SDS011;4328;48.622;9.230;2022-12-18T03:17:38;18.60;;;10.53;;
8580;SDS011;4328;48.622;9.230;2022-12-18T03:20:10;19.63;;;12.47;;
8580;SDS011;4328;48.622;9.230;2022-12-18T03:22:40;22.00;;;11.70;;
8580;SDS011;4328;48.622;9.230;2022-12-18T03:25:11;21.23;;;11.90;;
8580;SDS011;4328;48.622;9.230;2022-12-18T03:27:42;21.97;;;12.97;;
8580;SDS011;4328;48.622;9.230;2022-12-18T03:30:15;20.43;;;12.00;;
8580;SDS011;4328;48.622;9.230;2022-12-18T03:32:43;20.87;;;11.00;;
8580;SDS011;4328;48.622;9.230;2022-12-18T03:35:15;26.00;;;12.43;;
8580;SDS011;4328;48.622;9.230;2022-12-18T03:37:47;24.67;;;11.90;;
8580;SDS011;4328;48.622;9.230;2022-12-18T03:40:14;18.53;;;11.87;;
8580;SDS011;4328;48.622;9.230;2022-12-18T03:42:43;25.63;;;11.87;;
8580;SDS011;4328;48.622;9.230;2022-12-18T03:45:18;26.77;;;11.47;;
8580;SDS011;4328;48.622;9.230;2022-12-18T03:47:53;26.73;;;11.80;;
8580;SDS011;4328;48.622;9.230;2022-12-18T03:50:29;26.50;;;11.70;;
8580;SDS011;4328;48.622;9.230;2022-12-18T03:53:04;21.83;;;11.77;;
8580;SDS011;4328;48.622;9.230;2022-12-18T03:55:39;21.27;;;11.17;;
8580;SDS011;4328;48.622;9.230;2022-12-18T03:58:06;21.80;;;11.40;;
8580;SDS011;4328;48.622;9.230;2022-12-18T04:00:36;21.00;;;12.13;;
8580;SDS011;4328;48.622;9.230;2022-12-18T04:03:03;24.30;;;11.67;;
8580;SDS011;4328;48.622;9.230;2022-12-18T04:05:31;26.77;;;12.63;;
8580;SDS011;4328;48.622;9.230;2022-12-18T04:08:02;22.13;;;11.97;;
8580;SDS011;4328;48.622;9.230;2022-12-18T04:10:29;22.10;;;11.60;;
8580;SDS011;4328;48.622;9.230;2022-12-18T04:12:56;27.57;;;13.37;;
8580;SDS011;4328;48.622;9.230;2022-12-18T04:15:23;20.20;;;12.23;;
8580;SDS011;4328;48.622;9.230;2022-12-18T04:17:51;21.43;;;11.23;;
8580;SDS011;4328;48.622;9.230;2022-12-18T04:20:18;22.87;;;11.47;;
8580;SDS011;4328;48.622;9.230;2022-12-18T04:22:45;21.37;;;10.63;;
8580;SDS011;4328;48.622;9.230;2022-12-18T04:25:12;17.90;;;10.17;;
8580;SDS011;4328;48.622;9.230;2022-12-18T04:27:39;18.77;;;10.63;;
8580;SDS011;4328;48.622;9.230;2022-12-18T04:30:06;21.10;;;11.20;;
8580;SDS011;4328;48.622;9.230;2022-12-18T04:32:33;22.37;;;10.83;;
8580;SDS011;4328;48.622;9.230;2022-12-18T04:35:02;18.43;;;11.70;;
8580;SDS011;4328;48.622;9.230;2022-12-18T04:37:31;19.87;;;11.67;;
8580;SDS011;4328;48.622;9.230;2022-12-18T04:39:58;20.77;;;11.37;;
8580;SDS011;4328;48.622;9.230;2022-12-18T04:42:24;18.27;;;10.83;;
8580;SDS011;4328;48.622;9.230;2022-12-18T04:44:51;22.17;;;12.23;;
8580;SDS011;4328;48.622;9.230;2022-12-18T04:47:18;22.10;;;10.83;;
8580;SDS011;4328;48.622;9.230;2022-12-18T04:49:44;23.93;;;12.43;;
8580;SDS011;4328;48.622;9.230;2022-12-18T04:52:12;18.43;;;9.87;;
8580;SDS011;4328;48.622;9.230;2022-12-18T04:54:39;21.00;;;11.43;;
8580;SDS011;4328;48.622;9.230;2022-12-18T04:57:05;22.70;;;11.03;;
8580;SDS011;4328;48.622;9.230;2022-12-18T04:59:32;16.57;;;11.33;;
8580;SDS011;4328;48.622;9.230;2022-12-18T05:01:59;22.57;;;10.90;;
8580;SDS011;4328;48.622;9.230;2022-12-18T05:04:25;19.27;;;11.17;;
8580;SDS011;4328;48.622;9.230;2022-12-18T05:06:52;18.77;;;11.03;;
8580;SDS011;4328;48.622;9.230;2022-12-18T05:09:20;19.30;;;10.80;;
8580;SDS011;4328;48.622;9.230;2022-12-18T05:11:47;21.07;;;11.80;;
8580;SDS011;4328;48.622;9.230;2022-12-18T05:14:13;17.60;;;10.10;;
8580;SDS011;4328;48.622;9.230;2022-12-18T05:16:40;20.03;;;10.70;;
8580;SDS011;4328;48.622;9.230;2022-12-18T05:19:07;19.77;;;11.43;;
8580;SDS011;4328;48.622;9.230;2022-12-18T05:21:33;21.10;;;10.97;;
8580;SDS011;4328;48.622;9.230;2022-12-18T05:24:00;19.43;;;11.57;;
8580;SDS011;4328;48.622;9.230;2022-12-18T05:26:28;19.77;;;10.73;;
8580;SDS011;4328;48.622;9.230;2022-12-18T05:28:55;19.80;;;11.37;;
8580;SDS011;4328;48.622;9.230;2022-12-18T05:31:21;20.20;;;11.50;;
8580;SDS011;4328;48.622;9.230;2022-12-18T05:33:48;21.37;;;11.00;;
8580;SDS011;4328;48.622;9.230;2022-12-18T05:36:14;22.97;;;11.00;;
8580;SDS011;4328;48.622;9.230;2022-12-18T05:38:41;18.37;;;9.57;;
8580;SDS011;4328;48.622;9.230;2022-12-18T05:41:08;20.53;;;11.57;;
8580;SDS011;4328;48.622;9.230;2022-12-18T05:43:37;21.93;;;11.13;;
8580;SDS011;4328;48.622;9.230;2022-12-18T05:46:05;20.67;;;10.93;;
8580;SDS011;4328;48.622;9.230;2022-12-18T05:48:33;18.57;;;9.77;;
8580;SDS011;4328;48.622;9.230;2022-12-18T05:51:03;22.67;;;10.63;;
8580;SDS011;4328;48.622;9.230;2022-12-18T05:53:32;21.30;;;11.03;;
8580;SDS011;4328;48.622;9.230;2022-12-18T05:55:59;18.30;;;11.67;;
8580;SDS011;4328;48.622;9.230;2022-12-18T05:58:27;18.60;;;10.10;;
8580;SDS011;4328;48.622;9.230;2022-12-18T06:00:55;21.43;;;10.67;;
8580;SDS011;4328;48.622;9.230;2022-12-18T06:03:22;20.53;;;11.20;;
8580;SDS011;4328;48.622;9.230;2022-12-18T06:05:49;18.40;;;8.23;;
8580;SDS011;4328;48.622;9.230;2022-12-18T06:08:16;18.57;;;10.87;;
8580;SDS011;4328;48.622;9.230;2022-12-18T06:10:48;16.67;;;9.70;;
8580;SDS011;4328;48.622;9.230;2022-12-18T06:13:16;17.87;;;9.23;;
8580;SDS011;4328;48.622;9.230;2022-12-18T06:15:42;18.70;;;9.97;;
8580;SDS011;4328;48.622;9.230;2022-12-18T06:18:10;18.70;;;10.63;;
8580;SDS011;4328;48.622;9.230;2022-12-18T06:20:37;18.87;;;10.67;;
8580;SDS011;4328;48.622;9.230;2022-12-18T06:23:04;20.13;;;10.37;;
8580;SDS011;4328;48.622;9.230;2022-12-18T06:25:31;19.00;;;11.03;;
8580;SDS011;4328;48.622;9.230;2022-12-18T06:27:58;17.57;;;10.20;;
8580;SDS011;4328;48.622;9.230;2022-12-18T06:30:24;19.90;;;10.33;;
8580;SDS011;4328;48.622;9.230;2022-12-18T06:32:51;22.27;;;11.33;;
8580;SDS011;4328;48.622;9.230;2022-12-18T06:35:19;20.80;;;10.37;;
8580;SDS011;4328;48.622;9.230;2022-12-18T06:37:46;14.50;;;9.23;;
8580;SDS011;4328;48.622;9.230;2022-12-18T06:40:12;18.87;;;10.13;;
8580;SDS011;4328;48.622;9.230;2022-12-18T06:42:39;21.33;;;10.60;;
8580;SDS011;4328;48.622;9.230;2022-12-18T06:45:06;23.63;;;11.70;;
8580;SDS011;4328;48.622;9.230;2022-12-18T06:47:33;17.97;;;10.07;;
8580;SDS011;4328;48.622;9.230;2022-12-18T06:50:00;20.30;;;10.97;;
8580;SDS011;4328;48.622;9.230;2022-12-18T06:52:28;20.97;;;10.43;;
8580;SDS011;4328;48.622;9.230;2022-12-18T06:54:54;23.83;;;12.30;;
8580;SDS011;4328;48.622;9.230;2022-12-18T06:57:21;17.83;;;11.23;;
8580;SDS011;4328;48.622;9.230;2022-12-18T06:59:47;22.07;;;11.03;;
8580;SDS011;4328;48.622;9.230;2022-12-18T07:02:14;19.73;;;11.10;;
8580;SDS011;4328;48.622;9.230;2022-12-18T07:04:41;22.70;;;11.57;;
8580;SDS011;4328;48.622;9.230;2022-12-18T07:07:07;21.37;;;11.57;;
8580;SDS011;4328;48.622;9.230;2022-12-18T07:09:35;22.93;;;11.57;;
8580;SDS011;4328;48.622;9.230;2022-12-18T07:12:02;23.17;;;11.07;;
8580;SDS011;4328;48.622;9.230;2022-12-18T07:14:30;19.50;;;11.13;;
8580;SDS011;4328;48.622;9.230;2022-12-18T07:16:56;19.37;;;11.40;;
8580;SDS011;4328;48.622;9.230;2022-12-18T07:19:23;20.07;;;11.00;;
8580;SDS011;4328;48.622;9.230;2022-12-18T07:21:50;23.43;;;11.60;;
8580;SDS011;4328;48.622;9.230;2022-12-18T07:24:16;21.37;;;11.43;;
8580;SDS011;4328;48.622;9.230;2022-12-18T07:26:46;28.60;;;12.63;;
8580;SDS011;4328;48.622;9.230;2022-12-18T07:29:13;21.57;;;11.87;;
8580;SDS011;4328;48.622;9.230;2022-12-18T07:31:39;23.10;;;13.00;;
8580;SDS011;4328;48.622;9.230;2022-12-18T07:34:09;18.23;;;11.47;;
8580;SDS011;4328;48.622;9.230;2022-12-18T07:36:36;18.70;;;11.27;;
8580;SDS011;4328;48.622;9.230;2022-12-18T07:39:03;22.37;;;11.43;;
8580;SDS011;4328;48.622;9.230;2022-12-18T07:41:30;18.60;;;11.37;;
8580;SDS011;4328;48.622;9.230;2022-12-18T07:43:58;23.63;;;11.47;;
8580;SDS011;4328;48.622;9.230;2022-12-18T07:46:24;23.53;;;12.40;;
8580;SDS011;4328;48.622;9.230;2022-12-18T07:48:51;21.20;;;11.30;;
8580;SDS011;4328;48.622;9.230;2022-12-18T07:51:18;20.07;;;11.53;;
8580;SDS011;4328;48.622;9.230;2022-12-18T07:53:45;18.60;;;11.37;;
8580;SDS011;4328;48.622;9.230;2022-12-18T07:56:12;22.60;;;11.80;;
8580;SDS011;4328;48.622;9.230;2022-12-18T07:58:39;19.43;;;10.97;;
8580;SDS011;4328;48.622;9.230;2022-12-18T08:01:07;23.43;;;12.33;;
8580;SDS011;4328;48.622;9.230;2022-12-18T08:03:36;21.10;;;12.17;;
8580;SDS011;4328;48.622;9.230;2022-12-18T08:06:04;24.27;;;11.63;;
8580;SDS011;4328;48.622;9.230;2022-12-18T08:08:32;21.93;;;11.40;;
8580;SDS011;4328;48.622;9.230;2022-12-18T08:10:59;20.50;;;12.43;;
8580;SDS011;4328;48.622;9.230;2022-12-18T08:13:27;22.67;;;12.93;;
8580;SDS011;4328;48.622;9.230;2022-12-18T08:15:57;19.73;;;12.37;;
8580;SDS011;4328;48.622;9.230;2022-12-18T08:18:26;20.97;;;13.10;;
8580;SDS011;4328;48.622;9.230;2022-12-18T08:20:53;17.47;;;11.97;;
8580;SDS011;4328;48.622;9.230;2022-12-18T08:23:20;27.17;;;14.53;;
8580;SDS011;4328;48.622;9.230;2022-12-18T08:25:47;23.73;;;12.87;;
8580;SDS011;4328;48.622;9.230;2022-12-18T08:28:14;21.13;;;13.50;;
8580;SDS011;4328;48.622;9.230;2022-12-18T08:30:42;22.17;;;13.27;;
8580;SDS011;4328;48.622;9.230;2022-12-18T08:33:09;19.70;;;13.40;;
8580;SDS011;4328;48.622;9.230;2022-12-18T08:35:37;21.90;;;13.10;;
8580;SDS011;4328;48.622;9.230;2022-12-18T08:38:03;21.33;;;13.80;;
8580;SDS011;4328;48.622;9.230;2022-12-18T08:40:30;23.40;;;14.03;;
8580;SDS011;4328;48.622;9.230;2022-12-18T08:42:57;20.50;;;13.43;;
8580;SDS011;4328;48.622;9.230;2022-12-18T08:45:41;19.63;;;14.30;;
8580;SDS011;4328;48.622;9.230;2022-12-18T08:48:08;22.57;;;13.73;;
8580;SDS011;4328;48.622;9.230;2022-12-18T08:50:34;20.40;;;13.70;;
8580;SDS011;4328;48.622;9.230;2022-12-18T08:53:02;22.57;;;15.17;;
8580;SDS011;4328;48.622;9.230;2022-12-18T08:55:29;22.97;;;13.67;;
8580;SDS011;4328;48.622;9.230;2022-12-18T08:57:55;18.93;;;13.77;;
8580;SDS011;4328;48.622;9.230;2022-12-18T09:00:22;21.60;;;14.53;;
8580;SDS011;4328;48.622;9.230;2022-12-18T09:02:48;22.90;;;14.07;;
8580;SDS011;4328;48.622;9.230;2022-12-18T09:05:15;21.37;;;15.13;;
8580;SDS011;4328;48.622;9.230;2022-12-18T09:07:42;20.83;;;14.03;;
8580;SDS011;4328;48.622;9.230;2022-12-18T09:10:10;18.97;;;14.43;;
8580;SDS011;4328;48.622;9.230;2022-12-18T09:12:36;20.60;;;14.77;;
8580;SDS011;4328;48.622;9.230;2022-12-18T09:15:03;21.93;;;14.87;;
8580;SDS011;4328;48.622;9.230;2022-12-18T09:17:31;19.03;;;14.07;;
8580;SDS011;4328;48.622;9.230;2022-12-18T09:19:57;21.20;;;15.00;;
8580;SDS011;4328;48.622;9.230;2022-12-18T09:22:24;20.33;;;14.97;;
8580;SDS011;4328;48.622;9.230;2022-12-18T09:24:51;23.77;;;15.23;;
8580;SDS011;4328;48.622;9.230;2022-12-18T09:27:19;20.33;;;15.43;;
8580;SDS011;4328;48.622;9.230;2022-12-18T09:29:45;19.27;;;15.17;;
8580;SDS011;4328;48.622;9.230;2022-12-18T09:32:12;19.33;;;15.60;;
8580;SDS011;4328;48.622;9.230;2022-12-18T09:34:38;20.40;;;14.80;;
8580;SDS011;4328;48.622;9.230;2022-12-18T09:37:05;21.87;;;15.23;;
8580;SDS011;4328;48.622;9.230;2022-12-18T09:39:31;21.73;;;15.53;;
8580;SDS011;4328;48.622;9.230;2022-12-18T09:41:58;21.23;;;15.77;;
8580;SDS011;4328;48.622;9.230;2022-12-18T09:44:27;21.10;;;16.03;;
8580;SDS011;4328;48.622;9.230;2022-12-18T09:47:05;24.00;;;16.80;;
8580;SDS011;4328;48.622;9.230;2022-12-18T09:49:38;23.43;;;17.27;;
8580;SDS011;4328;48.622;9.230;2022-12-18T09:52:09;22.07;;;17.53;;
8580;SDS011;4328;48.622;9.230;2022-12-18T09:54:42;22.03;;;17.63;;
8580;SDS011;4328;48.622;9.230;2022-12-18T09:57:13;25.60;;;18.40;;
8580;SDS011;4328;48.622;9.230;2022-12-18T09:59:44;25.00;;;18.50;;
8580;SDS011;4328;48.622;9.230;2022-12-18T10:02:15;31.53;;;19.63;;
8580;SDS011;4328;48.622;9.230;2022-12-18T10:04:43;27.07;;;19.63;;
8580;SDS011;4328;48.622;9.230;2022-12-18T10:07:15;25.33;;;20.57;;
8580;SDS011;4328;48.622;9.230;2022-12-18T10:09:49;26.10;;;20.63;;
8580;SDS011;4328;48.622;9.230;2022-12-18T10:12:26;28.27;;;21.77;;
8580;SDS011;4328;48.622;9.230;2022-12-18T10:15:04;27.63;;;21.60;;
8580;SDS011;4328;48.622;9.230;2022-12-18T10:17:39;27.57;;;20.73;;
8580;SDS011;4328;48.622;9.230;2022-12-18T10:20:13;27.30;;;21.00;;
8580;SDS011;4328;48.622;9.230;2022-12-18T10:22:48;28.07;;;20.33;;
8580;SDS011;4328;48.622;9.230;2022-12-18T10:25:22;25.33;;;20.23;;
8580;SDS011;4328;48.622;9.230;2022-12-18T10:27:52;25.73;;;20.80;;
8580;SDS011;4328;48.622;9.230;2022-12-18T10:30:24;25.13;;;21.33;;
8580;SDS011;4328;48.622;9.230;2022-12-18T10:32:52;27.43;;;21.07;;
8580;SDS011;4328;48.622;9.230;2022-12-18T10:35:20;31.33;;;21.70;;
8580;SDS011;4328;48.622;9.230;2022-12-18T10:38:07;22.90;;;19.57;;
8580;SDS011;4328;48.622;9.230;2022-12-18T10:40:48;24.83;;;19.43;;
8580;SDS011;4328;48.622;9.230;2022-12-18T10:43:19;24.80;;;20.50;;
8580;SDS011;4328;48.622;9.230;2022-12-18T10:46:03;24.23;;;20.47;;
8580;SDS011;4328;48.622;9.230;2022-12-18T10:48:39;25.63;;;20.80;;
8580;SDS011;4328;48.622;9.230;2022-12-18T10:51:18;24.63;;;19.57;;
8580;SDS011;4328;48.622;9.230;2022-12-18T10:53:50;27.17;;;21.03;;
8580;SDS011;4328;48.622;9.230;2022-12-18T10:56:20;26.43;;;20.87;;
8580;SDS011;4328;48.622;9.230;2022-12-18T10:58:55;26.87;;;22.03;;
8580;SDS011;4328;48.622;9.230;2022-12-18T11:01:25;27.47;;;22.20;;
8580;SDS011;4328;48.622;9.230;2022-12-18T11:03:59;30.30;;;22.87;;
8580;SDS011;4328;48.622;9.230;2022-12-18T11:06:28;29.93;;;23.87;;
8580;SDS011;4328;48.622;9.230;2022-12-18T11:08:59;29.60;;;24.17;;
8580;SDS011;4328;48.622;9.230;2022-12-18T11:11:27;28.53;;;23.80;;
8580;SDS011;4328;48.622;9.230;2022-12-18T11:13:57;27.17;;;22.20;;
8580;SDS011;4328;48.622;9.230;2022-12-18T11:16:29;30.10;;;23.53;;
8580;SDS011;4328;48.622;9.230;2022-12-18T11:19:09;32.60;;;23.43;;
8580;SDS011;4328;48.622;9.230;2022-12-18T11:21:41;28.53;;;23.37;;
8580;SDS011;4328;48.622;9.230;2022-12-18T11:24:14;30.00;;;23.57;;
8580;SDS011;4328;48.622;9.230;2022-12-18T11:26:46;30.23;;;22.97;;
8580;SDS011;4328;48.622;9.230;2022-12-18T11:29:16;31.43;;;24.23;;
8580;SDS011;4328;48.622;9.230;2022-12-18T11:31:45;32.10;;;24.53;;
8580;SDS011;4328;48.622;9.230;2022-12-18T11:34:13;31.63;;;24.63;;
8580;SDS011;4328;48.622;9.230;2022-12-18T11:36:46;32.30;;;25.70;;
8580;SDS011;4328;48.622;9.230;2022-12-18T11:39:15;33.00;;;25.80;;
8580;SDS011;4328;48.622;9.230;2022-12-18T11:41:47;36.13;;;28.97;;
8580;SDS011;4328;48.622;9.230;2022-12-18T11:44:38;40.60;;;28.70;;
8580;SDS011;4328;48.622;9.230;2022-12-18T11:47:12;33.50;;;25.27;;
8580;SDS011;4328;48.622;9.230;2022-12-18T11:49:43;34.23;;;26.03;;
8580;SDS011;4328;48.622;9.230;2022-12-18T11:52:11;30.63;;;24.57;;
8580;SDS011;4328;48.622;9.230;2022-12-18T11:54:43;32.97;;;26.07;;
8580;SDS011;4328;48.622;9.230;2022-12-18T11:57:11;34.13;;;26.30;;
8580;SDS011;4328;48.622;9.230;2022-12-18T11:59:49;31.40;;;24.40;;
8580;SDS011;4328;48.622;9.230;2022-12-18T12:02:42;32.90;;;25.30;;
8580;SDS011;4328;48.622;9.230;2022-12-18T12:05:31;33.27;;;26.70;;
8580;SDS011;4328;48.622;9.230;2022-12-18T12:08:10;31.73;;;26.00;;
8580;SDS011;4328;48.622;9.230;2022-12-18T12:10:45;34.97;;;26.57;;
8580;SDS011;4328;48.622;9.230;2022-12-18T12:13:23;32.37;;;25.90;;
8580;SDS011;4328;48.622;9.230;2022-12-18T12:16:03;31.90;;;26.97;;
8580;SDS011;4328;48.622;9.230;2022-12-18T12:18:43;36.67;;;26.93;;
8580;SDS011;4328;48.622;9.230;2022-12-18T12:21:20;39.07;;;25.67;;
8580;SDS011;4328;48.622;9.230;2022-12-18T12:23:53;32.93;;;24.93;;
8580;SDS011;4328;48.622;9.230;2022-12-18T12:26:29;30.77;;;23.53;;
8580;SDS011;4328;48.622;9.230;2022-12-18T12:29:06;34.23;;;24.33;;
8580;SDS011;4328;48.622;9.230;2022-12-18T12:31:51;36.67;;;26.63;;
8580;SDS011;4328;48.622;9.230;2022-12-18T12:34:32;35.83;;;25.93;;
8580;SDS011;4328;48.622;9.230;2022-12-18T12:37:09;33.13;;;24.67;;
8580;SDS011;4328;48.622;9.230;2022-12-18T12:39:47;36.50;;;24.40;;
8580;SDS011;4328;48.622;9.230;2022-12-18T12:42:15;34.47;;;24.37;;
8580;SDS011;4328;48.622;9.230;2022-12-18T12:45:04;34.53;;;24.87;;
8580;SDS011;4328;48.622;9.230;2022-12-18T12:47:33;34.67;;;23.13;;
8580;SDS011;4328;48.622;9.230;2022-12-18T12:50:06;36.60;;;24.13;;
8580;SDS011;4328;48.622;9.230;2022-12-18T12:52:41;34.47;;;24.70;;
8580;SDS011;4328;48.622;9.230;2022-12-18T12:55:12;36.57;;;24.10;;
8580;SDS011;4328;48.622;9.230;2022-12-18T12:57:45;33.13;;;24.97;;
8580;SDS011;4328;48.622;9.230;2022-12-18T13:00:15;36.03;;;24.70;;
8580;SDS011;4328;48.622;9.230;2022-12-18T13:02:46;33.00;;;23.77;;
8580;SDS011;4328;48.622;9.230;2022-12-18T13:05:21;38.60;;;24.80;;
8580;SDS011;4328;48.622;9.230;2022-12-18T13:07:53;34.40;;;25.33;;
8580;SDS011;4328;48.622;9.230;2022-12-18T13:10:25;37.57;;;24.70;;
8580;SDS011;4328;48.622;9.230;2022-12-18T13:12:58;37.37;;;25.53;;
8580;SDS011;4328;48.622;9.230;2022-12-18T13:15:28;37.23;;;25.27;;
8580;SDS011;4328;48.622;9.230;2022-12-18T13:20:48;33.73;;;23.57;;
8580;SDS011;4328;48.622;9.230;2022-12-18T13:23:25;34.47;;;24.00;;
8580;SDS011;4328;48.622;9.230;2022-12-18T13:25:54;31.83;;;23.77;;
8580;SDS011;4328;48.622;9.230;2022-12-18T13:28:22;32.63;;;23.83;;
8580;SDS011;4328;48.622;9.230;2022-12-18T13:31:03;32.10;;;23.13;;
8580;SDS011;4328;48.622;9.230;2022-12-18T13:33:37;36.13;;;24.50;;
8580;SDS011;4328;48.622;9.230;2022-12-18T13:36:12;34.43;;;24.97;;
8580;SDS011;4328;48.622;9.230;2022-12-18T13:38:41;34.50;;;23.40;;
8580;SDS011;4328;48.622;9.230;2022-12-18T13:43:57;33.73;;;23.03;;
8580;SDS011;4328;48.622;9.230;2022-12-18T13:46:42;36.43;;;23.80;;
8580;SDS011;4328;48.622;9.230;2022-12-18T13:49:17;34.93;;;22.73;;
8580;SDS011;4328;48.622;9.230;2022-12-18T13:51:50;33.27;;;23.83;;
8580;SDS011;4328;48.622;9.230;2022-12-18T13:54:19;33.60;;;23.93;;
8580;SDS011;4328;48.622;9.230;2022-12-18T13:56:50;35.80;;;23.40;;
8580;SDS011;4328;48.622;9.230;2022-12-18T13:59:17;31.13;;;22.80;;
8580;SDS011;4328;48.622;9.230;2022-12-18T14:01:48;33.30;;;22.20;;
8580;SDS011;4328;48.622;9.230;2022-12-18T14:04:18;31.43;;;22.37;;
8580;SDS011;4328;48.622;9.230;2022-12-18T14:06:53;33.67;;;22.07;;
8580;SDS011;4328;48.622;9.230;2022-12-18T14:09:25;32.60;;;22.33;;
8580;SDS011;4328;48.622;9.230;2022-12-18T14:11:54;32.73;;;21.63;;
8580;SDS011;4328;48.622;9.230;2022-12-18T14:14:36;30.80;;;20.97;;
8580;SDS011;4328;48.622;9.230;2022-12-18T14:17:03;30.17;;;21.40;;
8580;SDS011;4328;48.622;9.230;2022-12-18T14:19:35;33.10;;;22.30;;
8580;SDS011;4328;48.622;9.230;2022-12-18T14:22:03;34.57;;;21.60;;
8580;SDS011;4328;48.622;9.230;2022-12-18T14:24:30;35.37;;;22.07;;
8580;SDS011;4328;48.622;9.230;2022-12-18T14:26:57;30.57;;;21.00;;
8580;SDS011;4328;48.622;9.230;2022-12-18T14:29:45;31.97;;;18.87;;
8580;SDS011;4328;48.622;9.230;2022-12-18T14:32:12;30.00;;;19.07;;
8580;SDS011;4328;48.622;9.230;2022-12-18T14:34:42;28.93;;;18.00;;
8580;SDS011;4328;48.622;9.230;2022-12-18T14:37:11;25.37;;;17.23;;
8580;SDS011;4328;48.622;9.230;2022-12-18T14:39:39;28.33;;;16.87;;
8580;SDS011;4328;48.622;9.230;2022-12-18T14:42:09;29.77;;;17.77;;
8580;SDS011;4328;48.622;9.230;2022-12-18T14:44:36;29.70;;;16.53;;
8580;SDS011;4328;48.622;9.230;2022-12-18T14:47:03;29.80;;;17.60;;
8580;SDS011;4328;48.622;9.230;2022-12-18T14:49:31;30.03;;;16.90;;
8580;SDS011;4328;48.622;9.230;2022-12-18T14:52:02;27.60;;;17.53;;
8580;SDS011;4328;48.622;9.230;2022-12-18T14:54:35;28.33;;;16.80;;
8580;SDS011;4328;48.622;9.230;2022-12-18T14:57:23;31.30;;;19.23;;
8580;SDS011;4328;48.622;9.230;2022-12-18T15:00:18;31.23;;;18.40;;
8580;SDS011;4328;48.622;9.230;2022-12-18T15:02:49;32.97;;;18.27;;
8580;SDS011;4328;48.622;9.230;2022-12-18T15:05:20;30.90;;;17.60;;
8580;SDS011;4328;48.622;9.230;2022-12-18T15:07:53;31.90;;;17.23;;
8580;SDS011;4328;48.622;9.230;2022-12-18T15:10:23;26.50;;;15.80;;
8580;SDS011;4328;48.622;9.230;2022-12-18T15:13:06;34.90;;;17.20;;
8580;SDS011;4328;48.622;9.230;2022-12-18T15:15:44;28.07;;;17.20;;